Time;durP1;ratioP1;P1;durP2;ratioP2;P2;SDS_P1;SDS_P2;PMS_P1;PMS_P2;Temp;Humidity;BMP_temperature;BMP_pressure;BME280_temperature;BME280_humidity;BME280_pressure;Samples;Min_cycle;Max_cycle;Signal;HPM_P1;HPM_P2
2022/01/22 00:01:38;;;;;;;;;;;;;;;2.76;100.00;102865.06;2567241;30;137626;-36
2022/01/22 00:04:06;;;;;;;14.10;6.03;;;;;;;2.73;100.00;102871.56;2566293;30;139583;-36
2022/01/22 00:06:34;;;;;;;10.13;5.47;;;;;;;2.73;100.00;102868.88;2567782;30;137311;-36
2022/01/22 00:09:04;;;;;;;17.50;5.90;;;;;;;2.79;100.00;102869.41;2568051;30;139129;-36
2022/01/22 00:11:39;;;;;;;13.85;5.47;;;;;;;2.81;100.00;102864.75;2566707;30;138615;-36
2022/01/22 00:14:25;;;;;;;14.43;5.75;;;;;;;2.76;100.00;102866.94;2568469;30;137376;-36
2022/01/22 00:16:58;;;;;;;13.52;5.97;;;;;;;2.73;100.00;102866.19;2568589;30;137375;-36
2022/01/22 00:19:27;;;;;;;11.93;5.70;;;;;;;2.75;100.00;102868.75;2567896;30;137153;-36
2022/01/22 00:21:56;;;;;;;12.05;5.80;;;;;;;2.81;100.00;102875.53;2569914;30;136794;-36
2022/01/22 00:24:24;;;;;;;11.82;5.85;;;;;;;2.79;100.00;102869.41;2569128;30;138551;-36
2022/01/22 00:26:51;;;;;;;;;;;;;;;2.79;100.00;102870.28;2568599;30;138671;-36
2022/01/22 00:29:20;;;;;;;14.43;5.40;;;;;;;2.79;100.00;102875.66;2568535;30;136868;-36
2022/01/22 00:31:48;;;;;;;13.38;6.10;;;;;;;2.75;100.00;102867.91;2568810;30;138237;-36
2022/01/22 00:34:15;;;;;;;;;;;;;;;2.77;100.00;102877.59;2568608;30;138174;-36
2022/01/22 00:36:43;;;;;;;14.98;6.03;;;;;;;2.75;100.00;102870.59;2569055;30;138354;-36
2022/01/22 00:39:12;;;;;;;10.52;5.55;;;;;;;2.75;100.00;102867.91;2567739;30;139960;-36
2022/01/22 00:41:41;;;;;;;13.88;6.60;;;;;;;2.81;100.00;102867.44;2569402;30;137359;-36
2022/01/22 00:44:10;;;;;;;14.63;5.97;;;;;;;2.80;100.00;102863.91;2568764;30;137722;-36
2022/01/22 00:46:38;;;;;;;;;;;;;;;2.81;100.00;102868.34;2568605;30;137627;-36
2022/01/22 00:49:06;;;;;;;15.05;6.53;;;;;;;2.78;100.00;102864.97;2568965;30;137547;-36
2022/01/22 00:51:34;;;;;;;12.18;6.50;;;;;;;2.74;100.00;102872.41;2567275;30;138864;-36
2022/01/22 00:54:03;;;;;;;13.52;6.10;;;;;;;2.74;100.00;102869.72;2568063;30;137870;-36
2022/01/22 00:56:31;;;;;;;11.90;5.50;;;;;;;2.78;100.00;102867.69;2568149;30;137528;-36
2022/01/22 00:58:59;;;;;;;;;;;;;;;2.79;100.00;102869.41;2569431;30;137626;-36
2022/01/22 01:01:28;;;;;;;11.52;6.15;;;;;;;2.82;100.00;102863.78;2568089;30;136728;-36
2022/01/22 01:04:02;;;;;;;11.95;6.00;;;;;;;2.82;100.00;102869.19;2567697;30;138025;-41
2022/01/22 01:06:30;;;;;;;12.82;6.20;;;;;;;2.82;100.00;102858.38;2568612;30;138321;-41
2022/01/22 01:09:00;;;;;;;12.85;7.07;;;;;;;2.80;100.00;102861.22;2568289;30;139075;-41
2022/01/22 01:11:32;;;;;;;13.82;6.78;;;;;;;2.79;100.00;102855.91;2568158;30;139127;-41
2022/01/22 01:14:03;;;;;;;20.08;7.35;;;;;;;2.80;100.00;102852.25;2567733;30;140540;-41
2022/01/22 01:33:07;;;;;;;17.73;8.98;;;;;;;2.71;100.00;102864.56;2565472;38;136983;-41
2022/01/22 01:35:38;;;;;;;17.45;8.73;;;;;;;2.69;100.00;102863.81;2568033;30;138452;-41
2022/01/22 01:38:08;;;;;;;18.35;9.80;;;;;;;2.68;100.00;102868.34;2567263;30;139252;-41
2022/01/22 01:40:40;;;;;;;18.42;10.40;;;;;;;2.70;100.00;102866.41;2567432;30;139812;-40
2022/01/22 01:43:19;;;;;;;19.90;11.15;;;;;;;2.70;100.00;102866.41;2567132;30;139198;-41
2022/01/22 01:45:54;;;;;;;16.88;9.90;;;;;;;2.68;100.00;102862.97;2567542;30;139120;-41
2022/01/22 01:48:27;;;;;;;20.05;10.05;;;;;;;2.70;100.00;102866.41;2569585;30;137095;-41
2022/01/22 01:50:57;;;;;;;14.80;9.73;;;;;;;2.68;100.00;102856.69;2568204;30;138864;-41
2022/01/22 01:53:44;;;;;;;20.60;10.93;;;;;;;2.72;100.00;102853.69;2569117;30;138170;-41
2022/01/22 01:58:59;;;;;;;21.55;10.88;;;;;;;2.69;100.00;102859.28;2568835;30;138467;-41
2022/01/22 02:01:28;;;;;;;20.40;11.52;;;;;;;2.72;100.00;102858.19;2567415;30;139819;-41
2022/01/22 02:03:56;;;;;;;20.33;11.38;;;;;;;2.67;100.00;102857.66;2567864;30;138281;-40
2022/01/22 02:06:25;;;;;;;18.90;11.50;;;;;;;2.69;100.00;102864.69;2567571;30;140485;-41
2022/01/22 02:08:53;;;;;;;;;;;;;;;2.67;100.00;102866.63;2568095;30;137501;-41
2022/01/22 02:11:27;;;;;;;22.65;11.50;;;;;;;2.68;100.00;102876.44;2568180;30;139893;-41
2022/01/22 02:23:31;;;;;;;29.33;13.07;;;;;;;2.65;100.00;102873.09;2567669;30;136902;-41
2022/01/22 02:25:41;;;;;;;24.80;13.18;;;;;;;2.67;100.00;102855.84;2566321;30;137517;-41
2022/01/22 02:28:10;;;;;;;27.30;13.35;;;;;;;2.66;100.00;102847.84;2567939;30;139315;-41
2022/01/22 02:30:43;;;;;;;29.20;14.80;;;;;;;2.63;100.00;102843.53;2566302;30;138848;-41
2022/01/22 02:33:33;;;;;;;25.33;14.05;;;;;;;2.67;100.00;102858.53;2568006;30;139854;-41
2022/01/22 02:36:14;;;;;;;25.52;14.35;;;;;;;2.66;100.00;102839.78;2567699;30;137454;-41
2022/01/22 02:38:55;;;;;;;24.73;14.52;;;;;;;2.66;100.00;102840.66;2568466;30;139332;-41
2022/01/22 02:41:25;;;;;;;30.38;15.68;;;;;;;2.70;100.00;102836.75;2565538;30;137962;-41
2022/01/22 02:43:55;;;;;;;25.52;15.00;;;;;;;2.73;100.00;102841.03;2567594;30;138409;-41
2022/01/22 02:46:27;;;;;;;25.80;14.75;;;;;;;2.71;100.00;102843.00;2567514;30;138727;-41
2022/01/22 02:48:57;;;;;;;28.42;16.05;;;;;;;2.65;100.00;102847.00;2567047;30;139403;-41
2022/01/22 02:51:26;;;;;;;28.13;15.73;;;;;;;2.67;100.00;102845.06;2565823;30;137353;-41
2022/01/22 02:54:00;;;;;;;30.95;16.92;;;;;;;2.72;100.00;102844.72;2566543;30;139233;-40
2022/01/22 02:56:28;;;;;;;26.77;15.77;;;;;;;2.70;100.00;102838.56;2568900;30;138034;-41
2022/01/22 02:58:58;;;;;;;;;;;;;;;2.67;100.00;102842.38;2568412;30;138031;-41
2022/01/22 03:01:27;;;;;;;33.03;16.52;;;;;;;2.70;100.00;102843.97;2567303;30;138668;-40
2022/01/22 03:03:57;;;;;;;32.30;15.60;;;;;;;2.71;100.00;102846.56;2567269;30;140829;-41
2022/01/22 03:06:25;;;;;;;29.02;15.00;;;;;;;2.69;100.00;102843.13;2566264;30;137652;-41
2022/01/22 03:08:53;;;;;;;;;;;;;;;2.71;100.00;102841.16;2566022;30;139978;-41
2022/01/22 03:11:29;;;;;;;30.75;15.65;;;;;;;2.68;100.00;102845.91;2568183;30;137108;-41
2022/01/22 03:17:25;;;;;;;29.40;15.55;;;;;;;2.72;100.00;102847.41;2564761;30;138039;-41
2022/01/22 03:19:54;;;;;;;27.25;15.75;;;;;;;2.66;100.00;102848.72;2567911;30;138482;-41
2022/01/22 03:27:54;;;;;;;29.30;15.45;;;;;;;2.72;100.00;102837.50;2567828;30;139486;-40
2022/01/22 03:30:22;;;;;;;27.38;15.15;;;;;;;2.67;100.00;102846.88;2566875;30;140883;-41
2022/01/22 03:32:53;;;;;;;29.65;16.10;;;;;;;2.67;100.00;102847.75;2567350;30;138982;-41
2022/01/22 03:37:54;;;;;;;34.13;15.02;;;;;;;2.72;100.00;102842.91;2566417;30;138444;-41
2022/01/22 03:40:31;;;;;;;25.65;15.02;;;;;;;2.69;100.00;102844.94;2567279;30;137111;-41
2022/01/22 03:42:59;;;;;;;32.42;14.75;;;;;;;2.72;100.00;102850.97;2568191;30;136716;-41
2022/01/22 03:45:27;;;;;;;31.25;15.52;;;;;;;2.75;100.00;102843.66;2566945;30;137496;-41
2022/01/22 03:47:56;;;;;;;27.35;15.15;;;;;;;2.77;100.00;102860.56;2566289;30;138326;-41
2022/01/22 03:50:25;;;;;;;26.27;14.80;;;;;;;2.78;100.00;102856.91;2567012;30;138540;-40
2022/01/22 03:52:53;;;;;;;25.77;15.02;;;;;;;2.81;100.00;102862.94;2568270;30;139127;-41
2022/01/22 03:55:40;;;;;;;;;;;;;;;2.82;100.00;102858.38;2567997;30;138466;-40
2022/01/22 03:58:41;;;;;;;24.50;13.95;;;;;;;2.82;100.00;102853.88;2568103;30;136951;-40
2022/01/22 04:04:14;;;;;;;30.48;15.35;;;;;;;2.83;100.00;102854.72;2568081;30;138522;-41
2022/01/22 04:09:31;;;;;;;33.22;15.10;;;;;;;2.81;100.00;102857.53;2568813;30;137077;-41
2022/01/22 04:12:00;;;;;;;26.80;15.18;;;;;;;2.83;100.00;102854.72;2567916;30;139955;-41
2022/01/22 04:14:32;;;;;;;28.30;14.80;;;;;;;2.83;100.00;102860.13;2567969;30;137388;-41
2022/01/22 04:25:07;;;;;;;32.33;15.27;;;;;;;2.82;100.00;102855.69;2567080;30;137985;-41
2022/01/22 04:27:37;;;;;;;24.88;15.20;;;;;;;2.84;100.00;102857.31;2567256;30;137085;-41
2022/01/22 04:30:06;;;;;;;29.05;15.88;;;;;;;2.82;100.00;102853.00;2569243;30;137614;-41
2022/01/22 04:32:33;;;;;;;29.20;15.40;;;;;;;2.81;100.00;102853.97;2567765;30;140757;-41
2022/01/22 04:35:02;;;;;;;32.75;16.40;;;;;;;2.80;100.00;102849.56;2567312;30;137988;-41
2022/01/22 04:37:30;;;;;;;28.75;15.82;;;;;;;2.82;100.00;102853.00;2565878;30;139217;-41
2022/01/22 04:39:58;;;;;;;30.20;15.68;;;;;;;2.87;100.00;102861.59;2566787;30;139236;-41
2022/01/22 04:42:29;;;;;;;27.83;15.73;;;;;;;2.82;100.00;102855.69;2568662;30;138456;-41
2022/01/22 04:45:03;;;;;;;33.72;16.27;;;;;;;2.89;100.00;102854.25;2568622;30;137140;-41
2022/01/22 04:47:47;;;;;;;32.22;16.00;;;;;;;2.91;100.00;102863.09;2568794;30;139360;-41
2022/01/22 04:55:40;;;;;;;29.52;15.43;;;;;;;2.95;100.00;102852.97;2567888;30;138628;-41
2022/01/22 04:58:10;;;;;;;33.40;15.90;;;;;;;2.94;100.00;102849.44;2567453;30;140374;-41
2022/01/22 05:00:42;;;;;;;30.83;15.65;;;;;;;3.00;100.00;102857.06;2567514;30;140149;-41
2022/01/22 05:03:10;;;;;;;31.20;16.08;;;;;;;3.05;100.00;102847.75;2568471;30;137053;-41
2022/01/22 05:05:57;;;;;;;26.98;15.27;;;;;;;3.00;100.00;102856.19;2566540;30;137289;-41
2022/01/22 05:08:29;;;;;;;27.83;15.10;;;;;;;3.00;100.00;102857.06;2567865;30;137438;-41
2022/01/22 05:11:20;;;;;;;26.35;15.50;;;;;;;3.07;100.00;102848.50;2567234;30;136981;-41
2022/01/22 05:13:51;;;;;;;28.55;16.02;;;;;;;3.02;100.00;102860.50;2567516;30;138235;-41
2022/01/22 05:16:20;;;;;;;36.97;16.13;;;;;;;3.09;100.00;102854.66;2568849;30;138756;-41
2022/01/22 05:19:02;;;;;;;35.10;16.67;;;;;;;3.06;100.00;102849.47;2568453;30;140733;-41
2022/01/22 05:21:36;;;;;;;29.30;14.95;;;;;;;3.05;100.00;102855.84;2567630;30;138592;-41
2022/01/22 05:24:08;;;;;;;28.77;15.25;;;;;;;3.04;100.00;102868.47;2564990;30;139732;-41
2022/01/22 05:37:52;;;;;;;26.30;15.60;;;;;;;3.09;100.00;102869.00;2567385;30;138654;-41
2022/01/22 05:40:20;;;;;;;;;;;;;;;3.09;100.00;102860.91;2568260;30;139897;-40
2022/01/22 05:42:48;;;;;;;30.77;15.15;;;;;;;3.07;100.00;102868.28;2568739;30;136868;-41
2022/01/22 05:45:16;;;;;;;30.98;15.88;;;;;;;3.08;100.00;102874.50;2566131;30;139451;-40
2022/01/22 05:47:45;;;;;;;35.10;15.98;;;;;;;3.09;100.00;102870.84;2568744;30;138252;-41
2022/01/22 05:50:27;;;;;;;30.20;15.80;;;;;;;3.13;100.00;102859.72;2568535;30;137666;-41
2022/01/22 05:53:03;;;;;;;34.20;16.02;;;;;;;3.11;100.00;102868.88;2566194;30;137410;-40
2022/01/22 06:00:53;;;;;;;30.08;16.40;;;;;;;3.08;100.00;102866.41;2567353;30;140468;-41
2022/01/22 06:03:40;;;;;;;30.98;15.80;;;;;;;3.08;100.00;102870.00;2566938;30;137555;-40
2022/01/22 06:06:09;;;;;;;34.65;16.42;;;;;;;3.11;100.00;102872.47;2568372;30;140619;-41
2022/01/22 06:08:47;;;;;;;31.58;15.93;;;;;;;3.11;100.00;102869.75;2567825;30;140404;-41
2022/01/22 06:11:22;;;;;;;;;;;;;;;3.12;100.00;102876.88;2567553;30;139365;-41
2022/01/22 06:13:51;;;;;;;29.23;15.80;;;;;;;3.12;100.00;102879.56;2567941;30;137965;-40
2022/01/22 06:16:34;;;;;;;28.23;16.15;;;;;;;3.10;100.00;102877.94;2567202;30;139219;-41
2022/01/22 06:19:28;;;;;;;34.92;16.65;;;;;;;3.12;100.00;102878.69;2567315;30;139463;-41
2022/01/22 06:21:56;;;;;;;32.15;16.48;;;;;;;3.15;100.00;102883.88;2566678;30;140858;-41
2022/01/22 06:24:24;;;;;;;32.47;16.27;;;;;;;3.17;100.00;102881.91;2567796;30;138374;-41
2022/01/22 06:26:55;;;;;;;29.13;16.13;;;;;;;3.15;100.00;102881.16;2566615;30;138311;-41
2022/01/22 06:29:22;;;;;;;;;;;;;;;3.14;100.00;102888.41;2567310;30;136835;-41
2022/01/22 06:31:50;;;;;;;30.08;16.40;;;;;;;3.12;100.00;102892.19;2568136;30;139577;-41
2022/01/22 06:34:20;;;;;;;30.98;15.55;;;;;;;3.12;100.00;102892.19;2566536;30;138302;-41
2022/01/22 06:36:48;;;;;;;;;;;;;;;3.19;100.00;102896.19;2567098;30;140260;-41
2022/01/22 06:39:20;;;;;;;27.50;14.70;;;;;;;3.20;100.00;102905.13;2565458;30;138206;-41
2022/01/22 06:42:06;;;;;;;31.95;15.77;;;;;;;3.19;100.00;102911.50;2567458;30;137791;-41
2022/01/22 06:44:51;;;;;;;29.77;16.52;;;;;;;3.21;100.00;102910.41;2566484;30;139500;-41
2022/01/22 06:47:38;;;;;;;28.60;15.43;;;;;;;3.21;100.00;102918.50;2568301;30;136853;-41
2022/01/22 06:50:10;;;;;;;29.55;15.68;;;;;;;3.19;100.00;102919.59;2567498;30;138474;-41
2022/01/22 06:53:00;;;;;;;28.33;15.40;;;;;;;3.18;100.00;102921.41;2567673;30;139936;-41
2022/01/22 06:55:50;;;;;;;30.88;16.15;;;;;;;3.18;100.00;102918.69;2564462;30;137132;-41
2022/01/22 06:58:18;;;;;;;28.98;15.88;;;;;;;3.23;100.00;102921.06;2566748;30;138653;-41
2022/01/22 07:00:52;;;;;;;32.00;15.70;;;;;;;3.17;100.00;102930.47;2565672;30;137244;-41
2022/01/22 07:03:23;;;;;;;30.10;16.08;;;;;;;3.16;100.00;102924.22;2567494;30;140609;-40
2022/01/22 07:06:08;;;;;;;34.75;15.95;;;;;;;3.19;100.00;102919.59;2567239;30;136844;-36
2022/01/22 07:08:36;;;;;;;29.17;15.88;;;;;;;3.18;100.00;102918.69;2566109;30;139942;-36
2022/01/22 07:11:06;;;;;;;32.42;15.70;;;;;;;3.19;100.00;102923.16;2567283;30;137759;-36
2022/01/22 07:13:38;;;;;;;30.90;16.40;;;;;;;3.19;100.00;102928.56;2566617;30;137152;-36
2022/01/22 07:16:07;;;;;;;30.30;16.38;;;;;;;3.16;100.00;102931.44;2566787;30;139696;-36
2022/01/22 07:18:35;;;;;;;29.20;14.73;;;;;;;3.14;100.00;102928.88;2567617;30;139606;-36
2022/01/22 07:21:20;;;;;;;31.73;16.13;;;;;;;3.15;100.00;102930.59;2567969;30;137790;-36
2022/01/22 07:26:24;;;;;;;34.03;16.15;;;;;;;3.20;100.00;102949.16;2567136;30;139430;-36
2022/01/22 07:29:04;;;;;;;33.63;16.15;;;;;;;3.21;100.00;102950.00;2566551;30;140472;-36
2022/01/22 07:31:35;;;;;;;31.98;16.20;;;;;;;3.18;100.00;102956.47;2567114;30;137985;-36
2022/01/22 07:34:04;;;;;;;28.20;15.90;;;;;;;3.19;100.00;102955.53;2565671;30;139535;-36
2022/01/22 07:36:34;;;;;;;30.95;15.77;;;;;;;3.19;100.00;102960.03;2566426;30;138952;-36
2022/01/22 07:39:03;;;;;;;31.17;16.27;;;;;;;3.20;100.00;102962.66;2566310;30;140087;-36
2022/01/22 07:41:33;;;;;;;28.55;16.00;;;;;;;3.28;100.00;102957.53;2566538;30;137405;-36
2022/01/22 07:44:21;;;;;;;29.48;17.38;;;;;;;3.30;100.00;102957.41;2567733;30;137599;-36
2022/01/22 07:46:50;;;;;;;33.25;16.35;;;;;;;3.33;100.00;102954.53;2566955;30;138652;-36
2022/01/22 07:49:21;;;;;;;32.45;16.05;;;;;;;3.33;100.00;102950.94;2568445;30;139738;-36
2022/01/22 07:51:50;;;;;;;29.05;16.20;;;;;;;3.37;100.00;102955.13;2568320;30;137539;-36
2022/01/22 07:54:21;;;;;;;30.23;15.82;;;;;;;3.31;100.00;102946.53;2567259;30;139883;-36
2022/01/22 07:56:50;;;;;;;29.58;15.93;;;;;;;3.33;100.00;102948.25;2566817;30;137707;-36
2022/01/22 07:59:18;;;;;;;;;;;;;;;3.33;100.00;102954.53;2567996;30;140605;-36
2022/01/22 08:01:51;;;;;;;28.45;15.50;;;;;;;3.36;100.00;102959.69;2565025;30;138564;-36
2022/01/22 08:04:26;;;;;;;39.63;17.23;;;;;;;3.39;100.00;102963.97;2564858;30;137198;-36
2022/01/22 08:07:13;;;;;;;32.05;16.55;;;;;;;3.43;100.00;102963.66;2567255;30;136789;-36
2022/01/22 08:09:59;;;;;;;30.02;16.85;;;;;;;3.44;100.00;102967.19;2568444;30;137506;-36
2022/01/22 08:12:51;;;;;;;34.28;17.48;;;;;;;3.54;100.00;102967.38;2564767;30;138428;-36
2022/01/22 08:15:20;;;;;;;34.47;16.50;;;;;;;3.54;100.00;102976.38;2567282;30;138781;-36
2022/01/22 08:17:49;;;;;;;34.00;16.83;;;;;;;3.54;100.00;102970.97;2567629;30;139740;-36
2022/01/22 08:20:20;;;;;;;32.55;17.70;;;;;;;3.54;100.00;102964.69;2566567;30;138556;-37
2022/01/22 08:22:53;;;;;;;33.90;16.25;;;;;;;3.53;100.00;102958.44;2567029;30;136749;-36
2022/01/22 08:25:39;;;;;;;32.40;15.57;;;;;;;3.57;100.00;102962.63;2568417;30;137074;-36
2022/01/22 08:31:19;;;;;;;34.78;17.67;;;;;;;3.59;100.00;102971.47;2566934;30;139985;-36
2022/01/22 08:36:39;;;;;;;34.35;17.13;;;;;;;3.63;100.00;102971.25;2566152;30;137860;-36
2022/01/22 08:39:07;;;;;;;38.85;17.65;;;;;;;3.65;100.00;102969.28;2567130;30;138278;-36
2022/01/22 08:41:36;;;;;;;30.65;15.32;;;;;;;3.66;100.00;102971.03;2566637;30;138048;-36
2022/01/22 08:44:05;;;;;;;36.45;17.05;;;;;;;3.68;100.00;102969.06;2570352;30;137014;-36
2022/01/22 08:46:34;;;;;;;32.22;16.55;;;;;;;3.71;100.00;102971.53;2568249;30;139593;-36
2022/01/22 08:49:04;;;;;;;34.47;17.33;;;;;;;3.78;100.00;102955.75;2568030;30;137547;-36
2022/01/22 08:51:39;;;;;;;39.13;17.77;;;;;;;3.76;100.00;102963.97;2564738;30;137445;-36
2022/01/22 08:54:09;;;;;;;33.40;17.85;;;;;;;3.79;100.00;102957.47;2568228;30;137798;-36
2022/01/22 08:56:40;;;;;;;33.72;17.13;;;;;;;3.83;100.00;102967.94;2568299;30;139793;-36
2022/01/22 08:59:09;;;;;;;34.50;18.02;;;;;;;3.85;100.00;102965.97;2567024;30;138910;-36
2022/01/22 09:01:42;;;;;;;32.90;16.90;;;;;;;3.86;100.00;102962.28;2567402;30;139610;-36
2022/01/22 09:04:30;;;;;;;36.03;19.03;;;;;;;3.89;100.00;102970.16;2567259;30;137423;-36
2022/01/22 09:07:19;;;;;;;33.83;17.85;;;;;;;3.92;100.00;102970.91;2567886;30;137080;-36
2022/01/22 09:09:53;;;;;;;36.47;18.20;;;;;;;3.87;100.00;102958.63;2569282;30;136781;-36
2022/01/22 09:12:45;;;;;;;40.05;19.80;;;;;;;3.96;100.00;102981.38;2568499;30;137976;-36
2022/01/22 09:15:45;;;;;;;;;;;;;;;3.97;100.00;102975.00;2567843;30;136948;-37
2022/01/22 09:18:13;;;;;;;38.88;18.55;;;;;;;4.02;100.00;102988.16;2566360;30;139763;-36
2022/01/22 09:23:12;;;;;;;38.33;18.88;;;;;;;4.09;100.00;102989.41;2568099;30;139544;-36
2022/01/22 09:25:41;;;;;;;37.50;18.17;;;;;;;4.10;100.00;102996.53;2566931;30;139971;-35
2022/01/22 09:28:13;;;;;;;34.08;18.33;;;;;;;4.11;100.00;102994.69;2569060;30;140190;-36
2022/01/22 09:30:47;;;;;;;37.22;18.92;;;;;;;4.09;100.00;102991.22;2567300;30;137240;-36
2022/01/22 09:33:16;;;;;;;39.28;19.17;;;;;;;4.11;100.00;102991.97;2567964;30;139851;-36
2022/01/22 09:36:14;;;;;;;35.85;18.92;;;;;;;4.12;100.00;103008.09;2566711;30;137566;-36
2022/01/22 09:39:05;;;;;;;34.85;18.67;;;;;;;4.10;100.00;102991.13;2569985;30;137961;-36
2022/01/22 09:41:52;;;;;;;32.63;17.88;;;;;;;4.12;100.00;102999.13;2567351;30;136784;-36
2022/01/22 09:44:54;;;;;;;32.05;17.70;;;;;;;4.16;100.00;102998.75;2567378;30;138270;-36
2022/01/22 09:47:49;;;;;;;32.50;17.27;;;;;;;4.18;100.00;103007.63;2567826;30;136731;-36
2022/01/22 09:50:32;;;;;;;36.50;19.00;;;;;;;4.17;100.00;103003.19;2568620;30;139652;-36
2022/01/22 09:53:40;;;;;;;35.25;18.35;;;;;;;4.14;100.00;103013.38;2568277;30;136758;-36
2022/01/22 09:56:34;;;;;;;36.00;18.08;;;;;;;4.13;100.00;102999.00;2568929;30;138172;-36
2022/01/22 09:59:15;;;;;;;34.33;17.73;;;;;;;4.16;100.00;103006.88;2568423;30;138384;-36
2022/01/22 10:02:19;;;;;;;34.72;18.73;;;;;;;4.23;100.00;103009.09;2565789;30;137660;-36
2022/01/22 10:04:49;;;;;;;32.63;17.67;;;;;;;4.26;100.00;103012.44;2569165;30;138749;-36
2022/01/22 10:07:26;;;;;;;36.55;18.60;;;;;;;4.34;100.00;103014.56;2569186;30;137647;-36
2022/01/22 10:10:07;;;;;;;35.38;18.92;;;;;;;4.38;100.00;103007.94;2566815;30;140029;-36
2022/01/22 10:12:45;;;;;;;34.17;18.02;;;;;;;4.47;100.00;103009.09;2568539;30;137386;-36
2022/01/22 10:15:35;;;;;;;38.88;18.75;;;;;;;4.50;100.00;103006.13;2569726;30;137051;-36
2022/01/22 10:18:21;;;;;;;37.53;17.85;;;;;;;4.55;100.00;103011.19;2567010;30;139792;-36
2022/01/22 10:20:49;;;;;;;39.00;18.42;;;;;;;4.62;100.00;103001.63;2568455;30;136698;-36
2022/01/22 10:23:24;;;;;;;;;;;;;;;4.67;100.00;103007.53;2569262;30;138225;-36
2022/01/22 10:26:02;;;;;;;33.95;16.63;;;;;;;4.69;100.00;103002.84;2568508;30;136717;-36
2022/01/22 10:28:45;;;;;;;33.63;17.70;;;;;;;4.73;100.00;103015.16;2568834;30;137488;-36
2022/01/22 10:31:24;;;;;;;31.63;16.88;;;;;;;4.84;100.00;103011.59;2566726;30;138390;-36
2022/01/22 10:34:18;;;;;;;34.10;15.50;;;;;;;4.83;100.00;103007.19;2567621;30;137238;-36
2022/01/22 10:37:28;;;;;;;29.08;14.85;;;;;;;4.94;100.00;103006.34;2566846;30;137485;-36
2022/01/22 10:40:23;;;;;;;27.02;14.93;;;;;;;5.00;100.00;103008.53;2565240;30;137681;-36
2022/01/22 10:42:52;;;;;;;27.17;13.70;;;;;;;5.06;100.00;103007.19;2567369;30;137565;-36
2022/01/22 10:45:26;;;;;;;25.05;12.25;;;;;;;5.11;100.00;103007.69;2569953;30;138319;-36
2022/01/22 10:48:15;;;;;;;23.38;11.88;;;;;;;5.08;100.00;103012.50;2566967;30;137969;-36
2022/01/22 10:50:44;;;;;;;25.77;12.20;;;;;;;5.11;100.00;103012.25;2567894;30;138464;-36
2022/01/22 10:53:12;;;;;;;20.98;11.27;;;;;;;5.23;100.00;103016.69;2567036;30;136713;-36
2022/01/22 10:55:59;;;;;;;23.65;11.50;;;;;;;5.34;100.00;103013.09;2567351;30;137787;-36
2022/01/22 10:58:27;;;;;;;20.70;10.85;;;;;;;5.28;100.00;103011.75;2565649;30;137784;-36
2022/01/22 11:00:59;;;;;;;;;;;;;;;5.33;100.00;103008.69;2567502;30;138567;-36
2022/01/22 11:03:28;;;;;;;22.75;10.48;;;;;;;5.32;100.00;103009.66;2564571;30;137681;-36
2022/01/22 11:05:57;;;;;;;20.52;10.65;;;;;;;5.30;100.00;103009.81;2569758;30;138923;-36
2022/01/22 11:08:29;;;;;;;19.35;10.75;;;;;;;5.23;100.00;103011.25;2566936;30;137615;-36
2022/01/22 11:10:57;;;;;;;21.60;11.68;;;;;;;5.23;100.00;103013.97;2567025;30;138114;-36
2022/01/22 11:13:25;;;;;;;18.67;10.13;;;;;;;5.20;100.00;103022.34;2568715;30;136788;-36
2022/01/22 11:15:55;;;;;;;21.30;10.63;;;;;;;5.14;100.00;103020.13;2568307;30;137609;-37
2022/01/22 11:18:24;;;;;;;22.90;11.25;;;;;;;5.09;100.00;103025.06;2567974;30;137155;-37
2022/01/22 11:20:53;;;;;;;23.40;11.60;;;;;;;5.14;100.00;103022.84;2568214;30;139368;-36
2022/01/22 11:23:21;;;;;;;21.23;11.13;;;;;;;5.09;100.00;103019.63;2568644;30;138350;-36
2022/01/22 11:25:50;;;;;;;;;;;;;;;5.04;100.00;103017.28;2567542;30;138565;-36
2022/01/22 11:28:20;;;;;;;24.83;11.77;;;;;;;5.03;100.00;103011.00;2567649;30;137814;-37
2022/01/22 11:30:50;;;;;;;28.17;12.70;;;;;;;5.03;100.00;103005.59;2565397;30;138783;-36
2022/01/22 11:33:21;;;;;;;25.85;13.07;;;;;;;5.01;100.00;103002.16;2567429;30;137544;-36
2022/01/22 11:35:52;;;;;;;28.92;13.57;;;;;;;5.03;100.00;103000.19;2564900;30;139298;-37
2022/01/22 11:38:33;;;;;;;30.23;14.18;;;;;;;5.03;100.00;103005.59;2567811;30;137067;-36
2022/01/22 11:41:09;;;;;;;30.75;14.27;;;;;;;5.03;100.00;103010.16;2567587;30;138216;-36
2022/01/22 11:46:59;;;;;;;29.02;14.07;;;;;;;5.01;100.00;103012.97;2567328;30;138247;-36
2022/01/22 11:49:31;;;;;;;29.02;14.65;;;;;;;4.99;100.00;103012.22;2567663;30;137570;-36
2022/01/22 11:52:08;;;;;;;28.40;14.43;;;;;;;5.00;100.00;103005.84;2566237;30;138735;-36
2022/01/22 11:54:59;;;;;;;29.27;14.45;;;;;;;5.05;100.00;103000.06;2567877;30;137689;-36
2022/01/22 11:57:32;;;;;;;26.42;14.20;;;;;;;5.11;100.00;103007.69;2567254;30;137569;-37
2022/01/22 12:00:24;;;;;;;27.80;14.55;;;;;;;5.10;100.00;103008.69;2568865;30;136684;-36
2022/01/22 12:03:07;;;;;;;27.15;14.32;;;;;;;5.08;100.00;103004.38;2567852;30;138669;-36
2022/01/22 12:05:56;;;;;;;26.38;13.52;;;;;;;5.09;100.00;103008.81;2567052;30;137527;-36
2022/01/22 12:08:24;;;;;;;25.35;12.77;;;;;;;5.08;100.00;103002.53;2567738;30;138362;-36
2022/01/22 12:16:41;;;;;;;27.90;13.77;;;;;;;5.12;100.00;103005.88;2569111;30;137089;-36
2022/01/22 12:22:35;;;;;;;24.50;11.90;;;;;;;5.08;100.00;103007.09;2567783;30;138558;-36
2022/01/22 12:25:09;;;;;;;23.35;12.13;;;;;;;5.08;100.00;103004.38;2567425;30;137187;-36
2022/01/22 12:27:44;;;;;;;24.17;12.73;;;;;;;5.12;100.00;102997.75;2568507;30;137834;-36
2022/01/22 12:30:13;;;;;;;24.67;12.48;;;;;;;5.09;100.00;103001.53;2566776;38;137471;-36
2022/01/22 12:32:52;;;;;;;23.60;12.50;;;;;;;5.07;100.00;103000.81;2569273;30;137102;-36
2022/01/22 12:35:37;;;;;;;26.67;12.20;;;;;;;5.07;100.00;102991.84;2569018;30;138612;-36
2022/01/22 12:38:23;;;;;;;24.00;12.18;;;;;;;5.07;100.00;102999.97;2567027;30;137841;-36
2022/01/22 12:40:57;;;;;;;21.70;12.18;;;;;;;5.06;100.00;102993.69;2566560;30;138503;-36
2022/01/22 12:43:32;;;;;;;23.90;11.93;;;;;;;5.03;100.00;102994.78;2568059;30;136843;-37
2022/01/22 12:46:03;;;;;;;27.42;12.93;;;;;;;5.08;100.00;103002.53;2567451;30;137404;-36
2022/01/22 12:48:34;;;;;;;27.27;12.82;;;;;;;5.08;100.00;103005.25;2568820;30;138380;-37
2022/01/22 12:51:09;;;;;;;31.83;13.02;;;;;;;5.06;100.00;102996.38;2568306;30;137246;-36
2022/01/22 12:53:41;;;;;;;23.33;12.65;;;;;;;5.06;100.00;102995.53;2566720;30;137285;-36
2022/01/22 12:56:47;;;;;;;25.10;13.30;;;;;;;5.07;100.00;103002.66;2568138;30;138918;-36
2022/01/22 12:59:05;;;;;;;27.23;13.73;;;;;;;5.07;100.00;103002.66;2568441;30;136899;-36
2022/01/22 13:01:34;;;;;;;29.63;14.20;;;;;;;5.07;100.00;103000.81;2569176;30;140088;-36
2022/01/22 13:06:52;;;;;;;25.77;13.00;;;;;;;5.00;100.00;103003.13;2568191;30;137486;-41
2022/01/22 13:09:48;;;;;;;29.40;14.45;;;;;;;4.97;100.00;103005.25;2568131;30;137086;-39
2022/01/22 13:12:16;;;;;;;26.73;13.18;;;;;;;4.95;100.00;102994.53;2568291;30;137452;-41
2022/01/22 13:14:44;;;;;;;27.40;14.82;;;;;;;4.96;100.00;103003.53;2569488;30;138150;-41
2022/01/22 13:17:14;;;;;;;30.70;14.35;;;;;;;4.97;100.00;102997.13;2568871;30;137654;-39
2022/01/22 13:19:42;;;;;;;27.38;14.25;;;;;;;4.96;100.00;103007.06;2567300;30;138500;-41
2022/01/22 13:22:09;;;;;;;23.98;13.57;;;;;;;4.93;100.00;103007.31;2568845;30;137809;-41